Photometre #46[NE_1.6] Lille AOT

File : 20220828_46.hum

28/08/2022,05:46:14,TEMP=18.3,BA=5.64,STAT.A=3.0,ExtBa=13.86
28/08/2022,05:49:48,TEMP=18.5,BA=5.64,STAT.A=3.0,ExtBa=13.76
28/08/2022,05:53:58,TEMP=18.6,BA=5.52,STAT.A=3.0,ExtBa=13.69
28/08/2022,05:58:51,TEMP=18.6,BA=5.52,STAT.A=3.0,ExtBa=13.66
28/08/2022,06:04:46,TEMP=18.8,BA=5.52,STAT.A=3.0,ExtBa=13.65
28/08/2022,06:12:00,TEMP=18.9,BA=5.64,STAT.A=3.0,ExtBa=13.67
28/08/2022,06:21:06,TEMP=19.2,BA=5.64,STAT.B=3.0,ExtBa=13.69
28/08/2022,06:25:26,TEMP=19.4,BA=5.64,STAT.A=3.0,ExtBa=13.53
28/08/2022,06:30:17,TEMP=19.6,BA=5.64,STAT.A=3.0,ExtBa=13.52
28/08/2022,06:35:43,TEMP=19.7,BA=5.64,STAT.A=3.0,ExtBa=13.47
28/08/2022,06:41:52,TEMP=19.8,BA=5.64,STAT.A=3.0,ExtBa=13.53
28/08/2022,06:48:53,TEMP=20.0,BA=5.64,STAT.C=3.0,ExtBa=13.58
28/08/2022,06:57:00,TEMP=20.4,BA=5.48,STAT.A=3.0,ExtBa=13.60
28/08/2022,07:06:29,TEMP=21.1,BA=5.64,STAT.A=3.0,ExtBa=13.65
28/08/2022,07:17:46,TEMP=22.6,BA=5.64,STAT.A=3.0,ExtBa=13.70
28/08/2022,07:31:26,TEMP=24.4,BA=5.64,STAT.A=3.0,ExtBa=13.75
28/08/2022,07:48:26,TEMP=25.5,BA=5.64,STAT.B=3.0,ExtBa=13.78
28/08/2022,08:24:04,TEMP=25.0,BA=5.64,STAT.B=3.0,ExtBa=13.58
28/08/2022,08:39:09,TEMP=24.7,BA=5.64,STAT.F,ExtBa=13.68
28/08/2022,08:54:08,TEMP=24.6,BA=5.64,STAT.D=3.0,ExtBa=13.71
28/08/2022,09:09:08,TEMP=27.0,BA=5.64,STAT.D=3.0,ExtBa=13.75
28/08/2022,09:24:08,TEMP=28.1,BA=5.64,STAT.D=3.0,ExtBa=13.76
28/08/2022,09:39:10,TEMP=28.9,BA=5.64,STAT.F,ExtBa=13.76
28/08/2022,09:54:08,TEMP=28.6,BA=5.64,STAT.D=3.0,ExtBa=13.76
28/08/2022,10:09:08,TEMP=29.6,BA=5.64,STAT.D=3.0,ExtBa=13.76
28/08/2022,10:24:09,TEMP=29.3,BA=5.64,STAT.D=3.0,ExtBa=13.76
28/08/2022,10:39:10,TEMP=27.9,BA=5.64,STAT.F,ExtBa=13.74
28/08/2022,10:54:09,TEMP=29.4,BA=5.60,STAT.D=3.0,ExtBa=13.35
28/08/2022,11:09:09,TEMP=30.2,BA=5.60,STAT.D=3.0,ExtBa=13.63
28/08/2022,11:24:09,TEMP=29.7,BA=5.60,STAT.D=3.0,ExtBa=13.71
28/08/2022,11:39:10,TEMP=30.1,BA=5.60,STAT.F,ExtBa=13.74
28/08/2022,11:54:09,TEMP=30.2,BA=5.60,STAT.D=3.0,ExtBa=13.35
28/08/2022,12:09:09,TEMP=30.2,BA=5.60,STAT.D=3.0,ExtBa=13.62
28/08/2022,12:24:08,TEMP=31.0,BA=5.60,STAT.D=3.0,ExtBa=13.71
28/08/2022,12:39:10,TEMP=31.3,BA=5.60,STAT.F,ExtBa=13.72
28/08/2022,12:54:08,TEMP=31.7,BA=5.60,STAT.D=3.0,ExtBa=13.34
28/08/2022,13:09:08,TEMP=31.8,BA=5.60,STAT.D=3.0,ExtBa=13.61
28/08/2022,13:24:09,TEMP=31.4,BA=5.60,STAT.D=3.0,ExtBa=13.70
28/08/2022,13:39:10,TEMP=31.3,BA=5.60,STAT.F,ExtBa=13.71
28/08/2022,13:54:08,TEMP=30.9,BA=5.44,STAT.D=3.0,ExtBa=12.95
28/08/2022,14:09:08,TEMP=31.0,BA=5.56,STAT.D=3.0,ExtBa=13.33
28/08/2022,14:24:08,TEMP=31.1,BA=5.60,STAT.D=3.0,ExtBa=13.44
28/08/2022,14:39:09,TEMP=31.1,BA=5.60,STAT.F,ExtBa=13.49
28/08/2022,14:54:14,TEMP=30.6,BA=5.44,STAT.B=3.0,ExtBa=12.92
28/08/2022,15:29:52,TEMP=30.6,BA=5.56,STAT.B=3.0,ExtBa=13.35
28/08/2022,15:46:52,TEMP=30.1,BA=5.56,STAT.A=3.0,ExtBa=13.14
28/08/2022,16:00:32,TEMP=30.0,BA=5.60,STAT.A=3.0,ExtBa=13.30
28/08/2022,16:11:49,TEMP=29.8,BA=5.60,STAT.A=3.0,ExtBa=13.35
28/08/2022,16:21:18,TEMP=29.5,BA=5.60,STAT.A=3.0,ExtBa=13.36
28/08/2022,16:29:25,TEMP=29.1,BA=5.60,STAT.C=3.0,ExtBa=13.37
28/08/2022,16:43:22,TEMP=28.7,BA=5.44,STAT.A=3.0,ExtBa=12.77
28/08/2022,16:45:13,TEMP=28.7,BA=5.44,STAT.A=3.0,ExtBa=12.82
28/08/2022,16:48:07,TEMP=28.4,BA=5.44,STAT.A=3.0,ExtBa=12.91
28/08/2022,16:52:50,TEMP=28.1,BA=5.56,STAT.A=3.0,ExtBa=13.02
28/08/2022,16:57:11,TEMP=28.0,BA=5.56,STAT.B=3.0,ExtBa=13.05
28/08/2022,17:06:16,TEMP=27.7,BA=5.44,STAT.A=3.0,ExtBa=12.77
28/08/2022,17:13:30,TEMP=27.3,BA=5.56,STAT.A=3.0,ExtBa=13.04
28/08/2022,17:19:25,TEMP=27.2,BA=5.56,STAT.A=3.0,ExtBa=13.12
28/08/2022,17:24:19,TEMP=27.0,BA=5.44,STAT.A=3.0,ExtBa=13.15
28/08/2022,17:28:28,TEMP=26.9,BA=5.44,STAT.A=3.0,ExtBa=13.14
28/08/2022,17:32:02,TEMP=26.8,BA=5.52,STAT.A=3.0,ExtBa=13.13